sensor_id;sensor_type;location;lat;lon;timestamp;temperature;humidity
58447;DHT22;44240;51.840;7.258;2024-01-27T00:01:02;5.90;77.00
58447;DHT22;44240;51.840;7.258;2024-01-27T00:03:29;5.80;76.90
58447;DHT22;44240;51.840;7.258;2024-01-27T00:05:56;5.80;76.80
58447;DHT22;44240;51.840;7.258;2024-01-27T00:08:23;5.80;77.00
58447;DHT22;44240;51.840;7.258;2024-01-27T00:10:50;5.80;78.20
58447;DHT22;44240;51.840;7.258;2024-01-27T00:13:16;5.70;77.40
58447;DHT22;44240;51.840;7.258;2024-01-27T00:15:43;5.70;77.60
58447;DHT22;44240;51.840;7.258;2024-01-27T00:18:10;5.70;77.90
58447;DHT22;44240;51.840;7.258;2024-01-27T00:20:37;5.70;79.00
58447;DHT22;44240;51.840;7.258;2024-01-27T00:23:04;5.60;78.10
58447;DHT22;44240;51.840;7.258;2024-01-27T00:25:31;5.60;78.10
58447;DHT22;44240;51.840;7.258;2024-01-27T00:27:58;5.60;78.10
58447;DHT22;44240;51.840;7.258;2024-01-27T00:30:24;5.60;78.10
58447;DHT22;44240;51.840;7.258;2024-01-27T00:32:52;5.70;78.10
58447;DHT22;44240;51.840;7.258;2024-01-27T00:35:19;5.60;77.90
58447;DHT22;44240;51.840;7.258;2024-01-27T00:37:46;5.60;77.80
58447;DHT22;44240;51.840;7.258;2024-01-27T00:40:12;5.60;77.90
58447;DHT22;44240;51.840;7.258;2024-01-27T00:42:40;5.60;77.90
58447;DHT22;44240;51.840;7.258;2024-01-27T00:45:07;5.60;78.00
58447;DHT22;44240;51.840;7.258;2024-01-27T00:47:34;5.60;78.10
58447;DHT22;44240;51.840;7.258;2024-01-27T00:50:01;5.60;78.20
58447;DHT22;44240;51.840;7.258;2024-01-27T00:52:28;5.60;78.30
58447;DHT22;44240;51.840;7.258;2024-01-27T00:54:55;5.60;78.50
58447;DHT22;44240;51.840;7.258;2024-01-27T00:57:21;5.50;78.40
58447;DHT22;44240;51.840;7.258;2024-01-27T00:59:48;5.50;78.40
58447;DHT22;44240;51.840;7.258;2024-01-27T01:02:15;5.50;78.50
58447;DHT22;44240;51.840;7.258;2024-01-27T01:04:42;5.50;78.50
58447;DHT22;44240;51.840;7.258;2024-01-27T01:07:09;5.50;78.50
58447;DHT22;44240;51.840;7.258;2024-01-27T01:09:35;5.50;78.50
58447;DHT22;44240;51.840;7.258;2024-01-27T01:12:02;5.60;78.60
58447;DHT22;44240;51.840;7.258;2024-01-27T01:14:29;5.50;78.60
58447;DHT22;44240;51.840;7.258;2024-01-27T01:16:56;5.50;78.70
58447;DHT22;44240;51.840;7.258;2024-01-27T01:19:23;5.50;78.70
58447;DHT22;44240;51.840;7.258;2024-01-27T01:21:50;5.40;78.70
58447;DHT22;44240;51.840;7.258;2024-01-27T01:24:17;5.40;78.70
58447;DHT22;44240;51.840;7.258;2024-01-27T01:26:43;5.50;78.70
58447;DHT22;44240;51.840;7.258;2024-01-27T01:29:10;5.50;78.80
58447;DHT22;44240;51.840;7.258;2024-01-27T01:31:37;5.40;78.90
58447;DHT22;44240;51.840;7.258;2024-01-27T01:34:04;5.40;79.00
58447;DHT22;44240;51.840;7.258;2024-01-27T01:36:30;5.40;79.10
58447;DHT22;44240;51.840;7.258;2024-01-27T01:38:57;5.40;79.10
58447;DHT22;44240;51.840;7.258;2024-01-27T01:41:24;5.40;79.30
58447;DHT22;44240;51.840;7.258;2024-01-27T01:43:51;5.30;79.20
58447;DHT22;44240;51.840;7.258;2024-01-27T01:46:18;5.30;79.30
58447;DHT22;44240;51.840;7.258;2024-01-27T01:48:45;5.30;79.20
58447;DHT22;44240;51.840;7.258;2024-01-27T01:51:12;5.30;79.30
58447;DHT22;44240;51.840;7.258;2024-01-27T01:53:39;5.30;79.40
58447;DHT22;44240;51.840;7.258;2024-01-27T01:56:06;5.30;79.50
58447;DHT22;44240;51.840;7.258;2024-01-27T01:58:35;5.30;79.50
58447;DHT22;44240;51.840;7.258;2024-01-27T02:01:01;5.20;79.30
58447;DHT22;44240;51.840;7.258;2024-01-27T02:03:28;5.20;79.20
58447;DHT22;44240;51.840;7.258;2024-01-27T02:05:56;5.20;79.20
58447;DHT22;44240;51.840;7.258;2024-01-27T02:08:23;5.20;79.30
58447;DHT22;44240;51.840;7.258;2024-01-27T02:10:50;5.20;79.30
58447;DHT22;44240;51.840;7.258;2024-01-27T02:13:21;5.20;79.30
58447;DHT22;44240;51.840;7.258;2024-01-27T02:15:49;5.20;79.30
58447;DHT22;44240;51.840;7.258;2024-01-27T02:18:16;5.20;79.20
58447;DHT22;44240;51.840;7.258;2024-01-27T02:20:44;5.20;79.30
58447;DHT22;44240;51.840;7.258;2024-01-27T02:23:11;5.20;79.30
58447;DHT22;44240;51.840;7.258;2024-01-27T02:25:38;5.10;79.30
58447;DHT22;44240;51.840;7.258;2024-01-27T02:28:05;5.10;79.30
58447;DHT22;44240;51.840;7.258;2024-01-27T02:30:32;5.10;79.40
58447;DHT22;44240;51.840;7.258;2024-01-27T02:32:58;5.10;79.30
58447;DHT22;44240;51.840;7.258;2024-01-27T02:35:26;5.10;79.30
58447;DHT22;44240;51.840;7.258;2024-01-27T02:37:52;5.10;79.40
58447;DHT22;44240;51.840;7.258;2024-01-27T02:40:19;5.10;79.30
58447;DHT22;44240;51.840;7.258;2024-01-27T02:42:46;5.10;79.30
58447;DHT22;44240;51.840;7.258;2024-01-27T02:45:13;5.10;79.30
58447;DHT22;44240;51.840;7.258;2024-01-27T02:47:40;5.10;79.30
58447;DHT22;44240;51.840;7.258;2024-01-27T02:50:07;5.10;79.30
58447;DHT22;44240;51.840;7.258;2024-01-27T02:52:34;5.00;79.20
58447;DHT22;44240;51.840;7.258;2024-01-27T02:55:01;5.00;79.30
58447;DHT22;44240;51.840;7.258;2024-01-27T02:57:28;5.00;79.30
58447;DHT22;44240;51.840;7.258;2024-01-27T02:59:55;5.00;79.50
58447;DHT22;44240;51.840;7.258;2024-01-27T03:02:22;5.00;79.40
58447;DHT22;44240;51.840;7.258;2024-01-27T03:04:49;5.00;79.40
58447;DHT22;44240;51.840;7.258;2024-01-27T03:07:15;5.00;79.30
58447;DHT22;44240;51.840;7.258;2024-01-27T03:09:42;4.90;79.20
58447;DHT22;44240;51.840;7.258;2024-01-27T03:12:09;5.00;79.20
58447;DHT22;44240;51.840;7.258;2024-01-27T03:14:36;4.90;79.20
58447;DHT22;44240;51.840;7.258;2024-01-27T03:17:03;4.90;79.20
58447;DHT22;44240;51.840;7.258;2024-01-27T03:19:30;4.90;79.30
58447;DHT22;44240;51.840;7.258;2024-01-27T03:21:57;4.90;79.40
58447;DHT22;44240;51.840;7.258;2024-01-27T03:24:24;4.80;79.40
58447;DHT22;44240;51.840;7.258;2024-01-27T03:26:51;4.90;79.40
58447;DHT22;44240;51.840;7.258;2024-01-27T03:29:18;4.90;79.40
58447;DHT22;44240;51.840;7.258;2024-01-27T03:31:44;4.80;79.20
58447;DHT22;44240;51.840;7.258;2024-01-27T03:34:11;4.90;79.40
58447;DHT22;44240;51.840;7.258;2024-01-27T03:36:38;4.80;79.30
58447;DHT22;44240;51.840;7.258;2024-01-27T03:39:05;4.80;79.30
58447;DHT22;44240;51.840;7.258;2024-01-27T03:41:32;4.80;79.40
58447;DHT22;44240;51.840;7.258;2024-01-27T03:43:59;4.80;79.60
58447;DHT22;44240;51.840;7.258;2024-01-27T03:46:26;4.80;79.80
58447;DHT22;44240;51.840;7.258;2024-01-27T03:48:54;4.80;79.80
58447;DHT22;44240;51.840;7.258;2024-01-27T03:51:21;4.70;79.80
58447;DHT22;44240;51.840;7.258;2024-01-27T03:53:49;4.70;79.70
58447;DHT22;44240;51.840;7.258;2024-01-27T03:56:16;4.80;79.80
58447;DHT22;44240;51.840;7.258;2024-01-27T03:58:43;4.70;79.80
58447;DHT22;44240;51.840;7.258;2024-01-27T04:01:10;4.70;80.00
58447;DHT22;44240;51.840;7.258;2024-01-27T04:03:36;4.70;80.00
58447;DHT22;44240;51.840;7.258;2024-01-27T04:06:03;4.70;81.20
58447;DHT22;44240;51.840;7.258;2024-01-27T04:08:30;4.70;80.20
58447;DHT22;44240;51.840;7.258;2024-01-27T04:10:57;4.60;80.30
58447;DHT22;44240;51.840;7.258;2024-01-27T04:13:24;4.70;80.50
58447;DHT22;44240;51.840;7.258;2024-01-27T04:15:51;4.60;80.50
58447;DHT22;44240;51.840;7.258;2024-01-27T04:18:20;4.60;80.50
58447;DHT22;44240;51.840;7.258;2024-01-27T04:20:47;4.60;80.60
58447;DHT22;44240;51.840;7.258;2024-01-27T04:23:15;4.60;80.60
58447;DHT22;44240;51.840;7.258;2024-01-27T04:25:43;4.60;80.60
58447;DHT22;44240;51.840;7.258;2024-01-27T04:28:10;4.60;80.60
58447;DHT22;44240;51.840;7.258;2024-01-27T04:30:39;4.60;80.60
58447;DHT22;44240;51.840;7.258;2024-01-27T04:33:06;4.60;80.60
58447;DHT22;44240;51.840;7.258;2024-01-27T04:35:34;4.60;80.60
58447;DHT22;44240;51.840;7.258;2024-01-27T04:38:01;4.60;80.70
58447;DHT22;44240;51.840;7.258;2024-01-27T04:40:28;4.60;80.70
58447;DHT22;44240;51.840;7.258;2024-01-27T04:42:55;4.60;80.70
58447;DHT22;44240;51.840;7.258;2024-01-27T04:45:22;4.60;80.90
58447;DHT22;44240;51.840;7.258;2024-01-27T04:47:49;4.60;81.00
58447;DHT22;44240;51.840;7.258;2024-01-27T04:50:16;4.60;80.90
58447;DHT22;44240;51.840;7.258;2024-01-27T04:52:42;4.60;80.80
58447;DHT22;44240;51.840;7.258;2024-01-27T04:55:09;4.60;80.80
58447;DHT22;44240;51.840;7.258;2024-01-27T04:57:36;4.60;80.80
58447;DHT22;44240;51.840;7.258;2024-01-27T05:00:03;4.60;80.90
58447;DHT22;44240;51.840;7.258;2024-01-27T05:02:33;4.50;80.80
58447;DHT22;44240;51.840;7.258;2024-01-27T05:05:01;4.50;80.80
58447;DHT22;44240;51.840;7.258;2024-01-27T05:07:29;4.50;81.00
58447;DHT22;44240;51.840;7.258;2024-01-27T05:09:56;4.50;80.90
58447;DHT22;44240;51.840;7.258;2024-01-27T05:12:23;4.50;80.90
58447;DHT22;44240;51.840;7.258;2024-01-27T05:14:50;4.50;81.00
58447;DHT22;44240;51.840;7.258;2024-01-27T05:17:17;4.50;80.90
58447;DHT22;44240;51.840;7.258;2024-01-27T05:19:44;4.50;80.90
58447;DHT22;44240;51.840;7.258;2024-01-27T05:22:11;4.50;81.00
58447;DHT22;44240;51.840;7.258;2024-01-27T05:24:37;4.40;81.00
58447;DHT22;44240;51.840;7.258;2024-01-27T05:27:04;4.50;81.10
58447;DHT22;44240;51.840;7.258;2024-01-27T05:29:31;4.50;81.10
58447;DHT22;44240;51.840;7.258;2024-01-27T05:31:58;4.50;81.00
58447;DHT22;44240;51.840;7.258;2024-01-27T05:34:25;4.40;80.90
58447;DHT22;44240;51.840;7.258;2024-01-27T05:36:52;4.40;80.90
58447;DHT22;44240;51.840;7.258;2024-01-27T05:39:18;4.40;80.70
58447;DHT22;44240;51.840;7.258;2024-01-27T05:41:45;4.40;80.70
58447;DHT22;44240;51.840;7.258;2024-01-27T05:44:12;4.40;80.70
58447;DHT22;44240;51.840;7.258;2024-01-27T05:46:39;4.30;80.60
58447;DHT22;44240;51.840;7.258;2024-01-27T05:49:05;4.30;80.70
58447;DHT22;44240;51.840;7.258;2024-01-27T05:51:33;4.30;80.80
58447;DHT22;44240;51.840;7.258;2024-01-27T05:54:00;4.30;80.80
58447;DHT22;44240;51.840;7.258;2024-01-27T05:56:27;4.30;80.60
58447;DHT22;44240;51.840;7.258;2024-01-27T05:58:53;4.30;80.40
58447;DHT22;44240;51.840;7.258;2024-01-27T06:01:21;4.20;80.20
58447;DHT22;44240;51.840;7.258;2024-01-27T06:03:47;4.20;80.00
58447;DHT22;44240;51.840;7.258;2024-01-27T06:06:14;4.20;79.90
58447;DHT22;44240;51.840;7.258;2024-01-27T06:08:42;4.10;79.70
58447;DHT22;44240;51.840;7.258;2024-01-27T06:11:08;4.10;79.70
58447;DHT22;44240;51.840;7.258;2024-01-27T06:13:36;4.10;79.60
58447;DHT22;44240;51.840;7.258;2024-01-27T06:16:08;4.10;79.60
58447;DHT22;44240;51.840;7.258;2024-01-27T06:18:37;4.00;79.60
58447;DHT22;44240;51.840;7.258;2024-01-27T06:21:05;3.90;79.50
58447;DHT22;44240;51.840;7.258;2024-01-27T06:23:33;3.90;79.50
58447;DHT22;44240;51.840;7.258;2024-01-27T06:26:07;3.90;79.40
58447;DHT22;44240;51.840;7.258;2024-01-27T06:28:34;3.80;79.30
58447;DHT22;44240;51.840;7.258;2024-01-27T06:31:02;3.80;79.30
58447;DHT22;44240;51.840;7.258;2024-01-27T06:33:29;3.70;79.30
58447;DHT22;44240;51.840;7.258;2024-01-27T06:35:56;3.70;79.30
58447;DHT22;44240;51.840;7.258;2024-01-27T06:38:23;3.70;79.40
58447;DHT22;44240;51.840;7.258;2024-01-27T06:40:49;3.70;79.40
58447;DHT22;44240;51.840;7.258;2024-01-27T06:43:16;3.60;79.30
58447;DHT22;44240;51.840;7.258;2024-01-27T06:45:43;3.60;79.30
58447;DHT22;44240;51.840;7.258;2024-01-27T06:48:10;3.60;79.40
58447;DHT22;44240;51.840;7.258;2024-01-27T06:50:37;3.50;79.40
58447;DHT22;44240;51.840;7.258;2024-01-27T06:53:03;3.50;79.40
58447;DHT22;44240;51.840;7.258;2024-01-27T06:55:30;3.50;79.60
58447;DHT22;44240;51.840;7.258;2024-01-27T06:57:57;3.50;80.60
58447;DHT22;44240;51.840;7.258;2024-01-27T07:00:24;3.50;79.60
58447;DHT22;44240;51.840;7.258;2024-01-27T07:02:50;3.50;79.70
58447;DHT22;44240;51.840;7.258;2024-01-27T07:05:17;3.50;79.80
58447;DHT22;44240;51.840;7.258;2024-01-27T07:07:44;3.50;80.10
58447;DHT22;44240;51.840;7.258;2024-01-27T07:10:11;3.50;79.80
58447;DHT22;44240;51.840;7.258;2024-01-27T07:12:37;3.50;79.80
58447;DHT22;44240;51.840;7.258;2024-01-27T07:15:05;3.40;79.80
58447;DHT22;44240;51.840;7.258;2024-01-27T07:17:32;3.40;79.80
58447;DHT22;44240;51.840;7.258;2024-01-27T07:19:59;3.40;79.80
58447;DHT22;44240;51.840;7.258;2024-01-27T07:22:26;3.40;79.90
58447;DHT22;44240;51.840;7.258;2024-01-27T07:24:52;3.40;79.90
58447;DHT22;44240;51.840;7.258;2024-01-27T07:27:19;3.40;79.90
58447;DHT22;44240;51.840;7.258;2024-01-27T07:29:46;3.40;80.00
58447;DHT22;44240;51.840;7.258;2024-01-27T07:32:13;3.40;80.00
58447;DHT22;44240;51.840;7.258;2024-01-27T07:34:44;3.40;80.10
58447;DHT22;44240;51.840;7.258;2024-01-27T07:37:11;3.40;80.30
58447;DHT22;44240;51.840;7.258;2024-01-27T07:39:38;3.40;80.30
58447;DHT22;44240;51.840;7.258;2024-01-27T07:42:05;3.30;80.30
58447;DHT22;44240;51.840;7.258;2024-01-27T07:44:32;3.40;80.30
58447;DHT22;44240;51.840;7.258;2024-01-27T07:46:59;3.40;80.30
58447;DHT22;44240;51.840;7.258;2024-01-27T07:49:25;3.30;80.30
58447;DHT22;44240;51.840;7.258;2024-01-27T07:51:52;3.30;80.30
58447;DHT22;44240;51.840;7.258;2024-01-27T07:54:19;3.40;80.30
58447;DHT22;44240;51.840;7.258;2024-01-27T07:56:46;3.40;80.40
58447;DHT22;44240;51.840;7.258;2024-01-27T07:59:13;3.40;80.60
58447;DHT22;44240;51.840;7.258;2024-01-27T08:01:41;3.40;80.80
58447;DHT22;44240;51.840;7.258;2024-01-27T08:04:08;3.40;82.10
58447;DHT22;44240;51.840;7.258;2024-01-27T08:06:49;3.40;81.20
58447;DHT22;44240;51.840;7.258;2024-01-27T08:09:17;3.50;82.60
58447;DHT22;44240;51.840;7.258;2024-01-27T08:11:44;3.50;81.70
58447;DHT22;44240;51.840;7.258;2024-01-27T08:14:11;3.50;81.70
58447;DHT22;44240;51.840;7.258;2024-01-27T08:16:38;3.50;81.70
58447;DHT22;44240;51.840;7.258;2024-01-27T08:19:05;3.60;81.70
58447;DHT22;44240;51.840;7.258;2024-01-27T08:21:32;3.60;81.70
58447;DHT22;44240;51.840;7.258;2024-01-27T08:23:59;3.60;81.70
58447;DHT22;44240;51.840;7.258;2024-01-27T08:26:26;3.70;81.70
58447;DHT22;44240;51.840;7.258;2024-01-27T08:28:53;3.70;81.70
58447;DHT22;44240;51.840;7.258;2024-01-27T08:31:22;3.70;81.90
58447;DHT22;44240;51.840;7.258;2024-01-27T08:33:49;3.80;82.00
58447;DHT22;44240;51.840;7.258;2024-01-27T08:36:17;3.90;82.10
58447;DHT22;44240;51.840;7.258;2024-01-27T08:38:44;3.80;81.90
58447;DHT22;44240;51.840;7.258;2024-01-27T08:41:11;3.90;82.00
58447;DHT22;44240;51.840;7.258;2024-01-27T08:43:38;3.90;82.00
58447;DHT22;44240;51.840;7.258;2024-01-27T08:46:05;4.00;81.90
58447;DHT22;44240;51.840;7.258;2024-01-27T08:48:34;4.00;81.90
58447;DHT22;44240;51.840;7.258;2024-01-27T08:51:01;4.00;82.00
58447;DHT22;44240;51.840;7.258;2024-01-27T08:53:28;4.10;82.20
58447;DHT22;44240;51.840;7.258;2024-01-27T08:55:54;4.10;82.20
58447;DHT22;44240;51.840;7.258;2024-01-27T08:58:21;4.10;82.20
58447;DHT22;44240;51.840;7.258;2024-01-27T09:00:48;4.20;82.20
58447;DHT22;44240;51.840;7.258;2024-01-27T09:03:15;4.20;82.30
58447;DHT22;44240;51.840;7.258;2024-01-27T09:05:43;4.20;82.40
58447;DHT22;44240;51.840;7.258;2024-01-27T09:08:11;4.30;82.50
58447;DHT22;44240;51.840;7.258;2024-01-27T09:10:38;4.30;82.60
58447;DHT22;44240;51.840;7.258;2024-01-27T09:13:05;4.30;82.70
58447;DHT22;44240;51.840;7.258;2024-01-27T09:15:32;4.40;82.70
58447;DHT22;44240;51.840;7.258;2024-01-27T09:17:58;4.40;82.80
58447;DHT22;44240;51.840;7.258;2024-01-27T09:20:25;4.50;82.90
58447;DHT22;44240;51.840;7.258;2024-01-27T09:22:52;4.50;82.90
58447;DHT22;44240;51.840;7.258;2024-01-27T09:25:19;4.60;82.90
58447;DHT22;44240;51.840;7.258;2024-01-27T09:27:46;4.60;82.90
58447;DHT22;44240;51.840;7.258;2024-01-27T09:30:13;4.70;82.90
58447;DHT22;44240;51.840;7.258;2024-01-27T09:32:40;4.70;82.90
58447;DHT22;44240;51.840;7.258;2024-01-27T09:35:07;4.80;82.90
58447;DHT22;44240;51.840;7.258;2024-01-27T09:37:33;4.90;82.80
58447;DHT22;44240;51.840;7.258;2024-01-27T09:40:00;4.90;82.60
58447;DHT22;44240;51.840;7.258;2024-01-27T09:42:29;5.00;82.60
58447;DHT22;44240;51.840;7.258;2024-01-27T09:45:02;5.00;82.40
58447;DHT22;44240;51.840;7.258;2024-01-27T09:47:29;5.10;82.30
58447;DHT22;44240;51.840;7.258;2024-01-27T09:49:56;5.10;82.20
58447;DHT22;44240;51.840;7.258;2024-01-27T09:52:24;5.20;82.10
58447;DHT22;44240;51.840;7.258;2024-01-27T09:54:51;5.30;82.10
58447;DHT22;44240;51.840;7.258;2024-01-27T09:57:17;5.30;81.90
58447;DHT22;44240;51.840;7.258;2024-01-27T09:59:47;5.40;81.80
58447;DHT22;44240;51.840;7.258;2024-01-27T10:02:16;5.40;81.70
58447;DHT22;44240;51.840;7.258;2024-01-27T10:04:44;5.50;81.50
58447;DHT22;44240;51.840;7.258;2024-01-27T10:07:12;5.60;81.60
58447;DHT22;44240;51.840;7.258;2024-01-27T10:09:38;5.60;81.60
58447;DHT22;44240;51.840;7.258;2024-01-27T10:12:07;5.70;81.50
58447;DHT22;44240;51.840;7.258;2024-01-27T10:14:40;5.70;81.40
58447;DHT22;44240;51.840;7.258;2024-01-27T10:17:11;5.80;81.30
58447;DHT22;44240;51.840;7.258;2024-01-27T10:19:37;5.80;81.00
58447;DHT22;44240;51.840;7.258;2024-01-27T10:22:10;5.90;80.80
58447;DHT22;44240;51.840;7.258;2024-01-27T10:24:37;5.90;80.60
58447;DHT22;44240;51.840;7.258;2024-01-27T10:27:04;5.90;80.50
58447;DHT22;44240;51.840;7.258;2024-01-27T10:29:31;6.00;80.30
58447;DHT22;44240;51.840;7.258;2024-01-27T10:32:08;6.10;80.20
58447;DHT22;44240;51.840;7.258;2024-01-27T10:34:36;6.10;79.90
58447;DHT22;44240;51.840;7.258;2024-01-27T10:37:03;6.20;79.80
58447;DHT22;44240;51.840;7.258;2024-01-27T10:39:29;6.20;79.40
58447;DHT22;44240;51.840;7.258;2024-01-27T10:42:01;6.30;79.30
58447;DHT22;44240;51.840;7.258;2024-01-27T10:44:29;6.30;79.10
58447;DHT22;44240;51.840;7.258;2024-01-27T10:46:56;6.40;78.90
58447;DHT22;44240;51.840;7.258;2024-01-27T10:49:27;6.50;78.90
58447;DHT22;44240;51.840;7.258;2024-01-27T10:51:56;6.50;78.80
58447;DHT22;44240;51.840;7.258;2024-01-27T10:54:25;6.50;78.80
58447;DHT22;44240;51.840;7.258;2024-01-27T10:56:55;6.60;78.90
58447;DHT22;44240;51.840;7.258;2024-01-27T10:59:22;6.70;78.90
58447;DHT22;44240;51.840;7.258;2024-01-27T11:01:49;6.70;78.60
58447;DHT22;44240;51.840;7.258;2024-01-27T11:04:20;6.80;78.60
58447;DHT22;44240;51.840;7.258;2024-01-27T11:06:48;6.80;78.60
58447;DHT22;44240;51.840;7.258;2024-01-27T11:09:17;6.90;78.30
58447;DHT22;44240;51.840;7.258;2024-01-27T11:11:46;6.90;78.00
58447;DHT22;44240;51.840;7.258;2024-01-27T11:14:13;7.00;78.00
58447;DHT22;44240;51.840;7.258;2024-01-27T11:16:40;7.00;77.90
58447;DHT22;44240;51.840;7.258;2024-01-27T11:19:12;7.10;77.70
58447;DHT22;44240;51.840;7.258;2024-01-27T11:21:40;7.10;78.60
58447;DHT22;44240;51.840;7.258;2024-01-27T11:24:17;7.20;77.50
58447;DHT22;44240;51.840;7.258;2024-01-27T11:26:44;7.30;76.80
58447;DHT22;44240;51.840;7.258;2024-01-27T11:29:11;7.30;77.00
58447;DHT22;44240;51.840;7.258;2024-01-27T11:31:48;7.40;76.70
58447;DHT22;44240;51.840;7.258;2024-01-27T11:34:18;7.40;76.20
58447;DHT22;44240;51.840;7.258;2024-01-27T11:36:47;7.40;76.10
58447;DHT22;44240;51.840;7.258;2024-01-27T11:39:30;7.50;76.10
58447;DHT22;44240;51.840;7.258;2024-01-27T11:42:10;7.60;75.60
58447;DHT22;44240;51.840;7.258;2024-01-27T11:44:41;7.60;75.00
58447;DHT22;44240;51.840;7.258;2024-01-27T11:47:17;7.70;74.60
58447;DHT22;44240;51.840;7.258;2024-01-27T11:49:50;7.70;74.40
58447;DHT22;44240;51.840;7.258;2024-01-27T11:52:19;7.80;74.00
58447;DHT22;44240;51.840;7.258;2024-01-27T11:54:46;7.80;73.80
58447;DHT22;44240;51.840;7.258;2024-01-27T11:57:13;7.80;73.90
58447;DHT22;44240;51.840;7.258;2024-01-27T11:59:40;7.90;73.90
58447;DHT22;44240;51.840;7.258;2024-01-27T12:02:07;7.90;74.10
58447;DHT22;44240;51.840;7.258;2024-01-27T12:04:34;8.00;74.10
58447;DHT22;44240;51.840;7.258;2024-01-27T12:07:01;8.00;73.80
58447;DHT22;44240;51.840;7.258;2024-01-27T12:09:28;8.10;73.30
58447;DHT22;44240;51.840;7.258;2024-01-27T12:11:55;8.20;72.70
58447;DHT22;44240;51.840;7.258;2024-01-27T12:14:22;8.20;72.30
58447;DHT22;44240;51.840;7.258;2024-01-27T12:16:50;8.20;72.50
58447;DHT22;44240;51.840;7.258;2024-01-27T12:19:17;8.30;71.50
58447;DHT22;44240;51.840;7.258;2024-01-27T12:21:48;8.30;71.30
58447;DHT22;44240;51.840;7.258;2024-01-27T12:24:16;8.40;71.40
58447;DHT22;44240;51.840;7.258;2024-01-27T12:26:48;8.40;71.30
58447;DHT22;44240;51.840;7.258;2024-01-27T12:29:15;8.40;71.40
58447;DHT22;44240;51.840;7.258;2024-01-27T12:31:44;8.50;71.40
58447;DHT22;44240;51.840;7.258;2024-01-27T12:34:11;8.50;70.80
58447;DHT22;44240;51.840;7.258;2024-01-27T12:36:42;8.50;70.50
58447;DHT22;44240;51.840;7.258;2024-01-27T12:39:09;8.60;70.50
58447;DHT22;44240;51.840;7.258;2024-01-27T12:41:37;8.70;70.60
58447;DHT22;44240;51.840;7.258;2024-01-27T12:44:05;8.70;70.60
58447;DHT22;44240;51.840;7.258;2024-01-27T12:46:32;8.70;70.40
58447;DHT22;44240;51.840;7.258;2024-01-27T12:48:59;8.70;70.10
58447;DHT22;44240;51.840;7.258;2024-01-27T12:51:26;8.80;70.00
58447;DHT22;44240;51.840;7.258;2024-01-27T12:53:53;8.90;70.00
58447;DHT22;44240;51.840;7.258;2024-01-27T12:56:20;8.90;69.90
58447;DHT22;44240;51.840;7.258;2024-01-27T12:58:46;9.00;69.70
58447;DHT22;44240;51.840;7.258;2024-01-27T13:01:13;9.00;68.20
58447;DHT22;44240;51.840;7.258;2024-01-27T13:03:40;9.10;67.10
58447;DHT22;44240;51.840;7.258;2024-01-27T13:06:12;9.10;67.30
58447;DHT22;44240;51.840;7.258;2024-01-27T13:08:40;9.10;67.40
58447;DHT22;44240;51.840;7.258;2024-01-27T13:11:08;9.20;66.80
58447;DHT22;44240;51.840;7.258;2024-01-27T13:13:35;9.20;66.70
58447;DHT22;44240;51.840;7.258;2024-01-27T13:16:02;9.20;66.90
58447;DHT22;44240;51.840;7.258;2024-01-27T13:18:29;9.30;66.60
58447;DHT22;44240;51.840;7.258;2024-01-27T13:20:56;9.30;66.80
58447;DHT22;44240;51.840;7.258;2024-01-27T13:23:22;9.40;65.50
58447;DHT22;44240;51.840;7.258;2024-01-27T13:25:49;9.40;64.60
58447;DHT22;44240;51.840;7.258;2024-01-27T13:28:37;9.50;64.30
58447;DHT22;44240;51.840;7.258;2024-01-27T13:31:03;9.50;64.40
58447;DHT22;44240;51.840;7.258;2024-01-27T13:33:31;9.50;64.50
58447;DHT22;44240;51.840;7.258;2024-01-27T13:35:59;9.50;64.70
58447;DHT22;44240;51.840;7.258;2024-01-27T13:38:26;9.50;65.00
58447;DHT22;44240;51.840;7.258;2024-01-27T13:40:53;9.60;65.00
58447;DHT22;44240;51.840;7.258;2024-01-27T13:43:20;9.60;64.40
58447;DHT22;44240;51.840;7.258;2024-01-27T13:45:47;9.70;64.40
58447;DHT22;44240;51.840;7.258;2024-01-27T13:48:14;9.70;63.60
58447;DHT22;44240;51.840;7.258;2024-01-27T13:50:42;9.70;63.20
58447;DHT22;44240;51.840;7.258;2024-01-27T13:53:09;9.70;62.40
58447;DHT22;44240;51.840;7.258;2024-01-27T13:55:36;9.80;62.60
58447;DHT22;44240;51.840;7.258;2024-01-27T13:58:04;9.80;62.10
58447;DHT22;44240;51.840;7.258;2024-01-27T14:00:30;9.80;62.20
58447;DHT22;44240;51.840;7.258;2024-01-27T14:03:00;9.90;61.30
58447;DHT22;44240;51.840;7.258;2024-01-27T14:05:27;10.00;61.20
58447;DHT22;44240;51.840;7.258;2024-01-27T14:07:54;10.00;61.30
58447;DHT22;44240;51.840;7.258;2024-01-27T14:10:20;10.10;60.90
58447;DHT22;44240;51.840;7.258;2024-01-27T14:12:47;10.20;60.60
58447;DHT22;44240;51.840;7.258;2024-01-27T14:15:14;10.20;60.80
58447;DHT22;44240;51.840;7.258;2024-01-27T14:17:41;10.20;60.50
58447;DHT22;44240;51.840;7.258;2024-01-27T14:20:08;10.20;60.80
58447;DHT22;44240;51.840;7.258;2024-01-27T14:22:36;10.20;61.40
58447;DHT22;44240;51.840;7.258;2024-01-27T14:25:03;10.20;61.20
58447;DHT22;44240;51.840;7.258;2024-01-27T14:27:31;10.20;60.70
58447;DHT22;44240;51.840;7.258;2024-01-27T14:29:58;10.20;60.80
58447;DHT22;44240;51.840;7.258;2024-01-27T14:32:25;10.10;60.80
58447;DHT22;44240;51.840;7.258;2024-01-27T14:34:51;10.10;60.80
58447;DHT22;44240;51.840;7.258;2024-01-27T14:37:19;10.10;60.70
58447;DHT22;44240;51.840;7.258;2024-01-27T14:39:46;10.00;60.80
58447;DHT22;44240;51.840;7.258;2024-01-27T14:42:13;10.00;61.40
58447;DHT22;44240;51.840;7.258;2024-01-27T14:44:41;9.90;61.50
58447;DHT22;44240;51.840;7.258;2024-01-27T14:47:09;9.90;61.30
58447;DHT22;44240;51.840;7.258;2024-01-27T14:49:36;9.90;61.10
58447;DHT22;44240;51.840;7.258;2024-01-27T14:52:05;9.90;61.00
58447;DHT22;44240;51.840;7.258;2024-01-27T14:54:35;9.80;61.30
58447;DHT22;44240;51.840;7.258;2024-01-27T14:57:04;9.80;61.40
58447;DHT22;44240;51.840;7.258;2024-01-27T14:59:31;9.80;61.40
58447;DHT22;44240;51.840;7.258;2024-01-27T15:01:58;9.70;61.50
58447;DHT22;44240;51.840;7.258;2024-01-27T15:04:25;9.70;61.60
58447;DHT22;44240;51.840;7.258;2024-01-27T15:06:55;9.70;61.80
58447;DHT22;44240;51.840;7.258;2024-01-27T15:09:23;9.70;61.80
58447;DHT22;44240;51.840;7.258;2024-01-27T15:11:51;9.70;61.80
58447;DHT22;44240;51.840;7.258;2024-01-27T15:14:18;9.70;62.00
58447;DHT22;44240;51.840;7.258;2024-01-27T15:16:48;9.70;61.80
58447;DHT22;44240;51.840;7.258;2024-01-27T15:19:15;9.70;61.60
58447;DHT22;44240;51.840;7.258;2024-01-27T15:21:43;9.70;61.80
58447;DHT22;44240;51.840;7.258;2024-01-27T15:24:10;9.60;61.80
58447;DHT22;44240;51.840;7.258;2024-01-27T15:26:36;9.60;62.00
58447;DHT22;44240;51.840;7.258;2024-01-27T15:29:03;9.60;62.10
58447;DHT22;44240;51.840;7.258;2024-01-27T15:31:30;9.50;62.00
58447;DHT22;44240;51.840;7.258;2024-01-27T15:33:57;9.50;62.00
58447;DHT22;44240;51.840;7.258;2024-01-27T15:36:24;9.40;61.90
58447;DHT22;44240;51.840;7.258;2024-01-27T15:38:51;9.40;62.20
58447;DHT22;44240;51.840;7.258;2024-01-27T15:41:18;9.30;62.50
58447;DHT22;44240;51.840;7.258;2024-01-27T15:43:45;9.30;62.60
58447;DHT22;44240;51.840;7.258;2024-01-27T15:46:14;9.20;62.70